Time;durP1;ratioP1;P1;durP2;ratioP2;P2;SDS_P1;SDS_P2;PMS_P1;PMS_P2;Temp;Humidity;BMP_temperature;BMP_pressure;BME280_temperature;BME280_humidity;BME280_pressure;Samples;Min_cycle;Max_cycle;Signal;HPM_P1;HPM_P2
2023/07/31 00:00:58;;;;;;;1.85;0.85;;;;;;;;;;5040122;28;20100;-64
2023/07/31 00:03:25;;;;;;;3.03;1.02;;;;;;;;;;5042618;28;20060;-60
2023/07/31 00:05:51;;;;;;;0.70;0.70;;;;;;;;;;5043088;28;20585;-65
2023/07/31 00:08:18;;;;;;;1.17;0.90;;;;;;;;;;5039081;28;20056;-63
2023/07/31 00:10:44;;;;;;;1.35;1.00;;;;;;;;;;5039860;28;20069;-65
2023/07/31 00:13:11;;;;;;;4.93;1.38;;;;;;;;;;5037622;28;20058;-62
2023/07/31 00:15:38;;;;;;;1.25;0.85;;;;;;;;;;5039486;28;20188;-63
2023/07/31 00:18:05;;;;;;;1.77;1.00;;;;;;;;;;5034973;28;20524;-67
2023/07/31 00:20:31;;;;;;;3.50;1.40;;;;;;;;;;5042401;28;20050;-66
2023/07/31 00:22:57;;;;;;;3.17;1.13;;;;;;;;;;5041473;28;20168;-65
2023/07/31 00:25:24;;;;;;;1.58;0.95;;;;;;;;;;5034598;28;20140;-65
2023/07/31 00:27:50;;;;;;;1.58;1.00;;;;;;;;;;5042749;28;20140;-65
2023/07/31 00:30:16;;;;;;;2.60;1.40;;;;;;;;;;5042938;28;20061;-60
2023/07/31 00:32:43;;;;;;;2.42;1.33;;;;;;;;;;5042391;28;20152;-65
2023/07/31 00:35:09;;;;;;;3.67;1.95;;;;;;;;;;5040715;28;20064;-61
2023/07/31 00:37:36;;;;;;;2.45;1.90;;;;;;;;;;5041485;28;20140;-61
2023/07/31 00:40:03;;;;;;;3.22;1.83;;;;;;;;;;5040976;28;20053;-65
2023/07/31 00:42:30;;;;;;;6.85;2.20;;;;;;;;;;5041895;28;20060;-65
2023/07/31 00:44:56;;;;;;;7.82;2.78;;;;;;;;;;5038122;28;20224;-65
2023/07/31 00:47:23;;;;;;;7.72;2.78;;;;;;;;;;5042084;28;20646;-64
2023/07/31 00:49:49;;;;;;;5.75;2.60;;;;;;;;;;5042955;28;20107;-63
2023/07/31 00:52:16;;;;;;;7.40;2.78;;;;;;;;;;5042542;28;20132;-58
2023/07/31 00:54:43;;;;;;;5.30;2.70;;;;;;;;;;5041857;28;20624;-64
2023/07/31 00:57:09;;;;;;;13.70;3.90;;;;;;;;;;5041880;28;20049;-60
2023/07/31 00:59:36;;;;;;;13.82;3.72;;;;;;;;;;5041999;28;20057;-62
2023/07/31 01:02:03;;;;;;;10.85;3.50;;;;;;;;;;5042677;28;20057;-63
2023/07/31 01:04:29;;;;;;;15.05;4.53;;;;;;;;;;5041706;28;20053;-64
2023/07/31 01:07:01;;;;;;;11.05;3.08;;;;;;;;;;5043505;28;20139;-62
2023/07/31 01:09:37;;;;;;;8.15;2.75;;;;;;;;;;5041788;28;20056;-65
2023/07/31 01:12:04;;;;;;;7.38;3.10;;;;;;;;;;5041750;28;20057;-62
2023/07/31 01:14:30;;;;;;;11.38;3.42;;;;;;;;;;5040776;28;20058;-64
2023/07/31 01:16:56;;;;;;;6.72;3.50;;;;;;;;;;5040334;28;20057;-66
2023/07/31 01:19:25;;;;;;;11.18;4.03;;;;;;;;;;5042350;28;20053;-65
2023/07/31 01:21:51;;;;;;;10.32;4.47;;;;;;;;;;5037036;28;20049;-65
2023/07/31 01:24:22;;;;;;;6.78;2.45;;;;;;;;;;5041451;28;22001;-60
2023/07/31 01:27:01;;;;;;;4.47;2.10;;;;;;;;;;5023871;28;20462;-63
2023/07/31 01:29:57;;;;;;;5.88;2.65;;;;;;;;;;5040529;28;20643;-62
2023/07/31 01:32:24;;;;;;;8.23;2.60;;;;;;;;;;5034780;28;20176;-62
2023/07/31 01:34:51;;;;;;;5.07;2.53;;;;;;;;;;5041180;28;20127;-64
2023/07/31 01:37:17;;;;;;;4.32;2.38;;;;;;;;;;5041169;28;20578;-63
2023/07/31 01:39:44;;;;;;;4.22;2.28;;;;;;;;;;5041238;28;20137;-62
2023/07/31 01:42:10;;;;;;;5.30;2.10;;;;;;;;;;5040949;28;20500;-64
2023/07/31 01:44:36;;;;;;;4.78;2.20;;;;;;;;;;5040421;28;20057;-63
2023/07/31 01:47:03;;;;;;;2.80;1.83;;;;;;;;;;5039898;28;20156;-60
2023/07/31 01:49:29;;;;;;;5.97;2.15;;;;;;;;;;5041372;28;20144;-64
2023/07/31 01:51:56;;;;;;;6.25;2.90;;;;;;;;;;5040094;28;20058;-65
2023/07/31 01:54:22;;;;;;;12.30;2.95;;;;;;;;;;5042254;28;20053;-65
2023/07/31 01:56:48;;;;;;;8.07;3.17;;;;;;;;;;5041923;28;20053;-64
2023/07/31 01:59:15;;;;;;;12.00;3.60;;;;;;;;;;5040894;28;20609;-64
2023/07/31 02:01:41;;;;;;;14.15;4.22;;;;;;;;;;5043771;28;20053;-63
2023/07/31 02:04:08;;;;;;;13.07;4.40;;;;;;;;;;5040598;28;20527;-59
2023/07/31 02:06:34;;;;;;;22.38;6.03;;;;;;;;;;5041569;28;20049;-64
2023/07/31 02:09:01;;;;;;;13.50;5.18;;;;;;;;;;5041930;28;20057;-62
2023/07/31 02:11:27;;;;;;;16.15;5.15;;;;;;;;;;5040088;28;20053;-61
2023/07/31 02:13:53;;;;;;;20.90;5.15;;;;;;;;;;5037160;28;20178;-64
2023/07/31 02:16:20;;;;;;;23.17;5.90;;;;;;;;;;5040956;28;20190;-63
2023/07/31 02:18:46;;;;;;;16.48;5.35;;;;;;;;;;5040823;28;20045;-60
2023/07/31 02:21:12;;;;;;;17.92;5.30;;;;;;;;;;5040773;28;20068;-61
2023/07/31 02:23:39;;;;;;;14.35;4.63;;;;;;;;;;5040865;28;20063;-62
2023/07/31 02:26:05;;;;;;;16.10;5.60;;;;;;;;;;5041172;28;20049;-60
2023/07/31 02:28:33;;;;;;;16.50;4.65;;;;;;;;;;5040383;28;20577;-64
2023/07/31 02:30:59;;;;;;;14.27;5.18;;;;;;;;;;5040700;28;20608;-58
2023/07/31 02:33:26;;;;;;;22.67;5.53;;;;;;;;;;5040964;28;20054;-63
2023/07/31 02:35:53;;;;;;;18.05;5.13;;;;;;;;;;5040943;28;20358;-62
2023/07/31 02:38:19;;;;;;;19.15;4.65;;;;;;;;;;5041270;28;20058;-61
2023/07/31 02:40:46;;;;;;;16.48;5.20;;;;;;;;;;5040494;28;20057;-60
2023/07/31 02:43:12;;;;;;;22.05;5.15;;;;;;;;;;5035436;28;20139;-64
2023/07/31 02:45:39;;;;;;;19.75;5.35;;;;;;;;;;5039356;28;20085;-59
2023/07/31 02:48:05;;;;;;;40.78;8.10;;;;;;;;;;5039345;28;20119;-62
2023/07/31 02:50:32;;;;;;;17.20;5.35;;;;;;;;;;5040613;28;20080;-63
2023/07/31 02:52:58;;;;;;;19.15;5.63;;;;;;;;;;5041356;28;20072;-60
2023/07/31 02:55:25;;;;;;;17.90;5.25;;;;;;;;;;5039576;28;20458;-60
2023/07/31 02:57:52;;;;;;;26.88;5.82;;;;;;;;;;5040374;28;20061;-64
2023/07/31 03:00:19;;;;;;;28.15;5.72;;;;;;;;;;5044774;28;20051;-63
2023/07/31 03:02:45;;;;;;;16.70;5.32;;;;;;;;;;5044129;28;20050;-62
2023/07/31 03:05:11;;;;;;;28.60;6.30;;;;;;;;;;5042073;28;20053;-60
2023/07/31 03:07:38;;;;;;;23.30;5.80;;;;;;;;;;5043030;28;20060;-64
2023/07/31 03:10:05;;;;;;;20.60;6.38;;;;;;;;;;5043802;28;20522;-62
2023/07/31 03:12:31;;;;;;;19.05;6.55;;;;;;;;;;5043608;28;20046;-63
2023/07/31 03:14:58;;;;;;;32.00;6.65;;;;;;;;;;5044434;28;20057;-62
2023/07/31 03:17:25;;;;;;;25.85;6.50;;;;;;;;;;5044388;28;20084;-64
2023/07/31 03:19:51;;;;;;;29.67;6.90;;;;;;;;;;5044086;28;20045;-63
2023/07/31 03:22:17;;;;;;;33.33;7.30;;;;;;;;;;5041843;28;20057;-61
2023/07/31 03:24:44;;;;;;;19.35;5.82;;;;;;;;;;5044893;28;20136;-64
2023/07/31 03:27:10;;;;;;;32.50;7.25;;;;;;;;;;5042937;28;20065;-61
2023/07/31 03:29:36;;;;;;;21.85;6.50;;;;;;;;;;5043604;28;20108;-58
2023/07/31 03:32:04;;;;;;;28.02;6.57;;;;;;;;;;5044352;28;20136;-59
2023/07/31 03:34:31;;;;;;;26.80;5.55;;;;;;;;;;5043968;28;20053;-62
2023/07/31 03:36:58;;;;;;;20.35;7.00;;;;;;;;;;5043650;28;20144;-61
2023/07/31 03:39:25;;;;;;;24.15;6.75;;;;;;;;;;5039965;28;20056;-63
2023/07/31 03:41:51;;;;;;;23.98;6.35;;;;;;;;;;5041648;28;20068;-64
2023/07/31 03:44:17;;;;;;;23.58;6.50;;;;;;;;;;5043089;28;20133;-59
2023/07/31 03:46:44;;;;;;;15.50;6.05;;;;;;;;;;5043833;28;20127;-60
2023/07/31 03:49:10;;;;;;;19.98;6.22;;;;;;;;;;5042983;28;20558;-64
2023/07/31 03:51:37;;;;;;;20.17;6.95;;;;;;;;;;5042533;28;20518;-60
2023/07/31 03:54:03;;;;;;;23.63;6.85;;;;;;;;;;5042556;28;20054;-61
2023/07/31 03:56:30;;;;;;;26.33;6.13;;;;;;;;;;5044038;28;20053;-62
2023/07/31 03:59:01;;;;;;;14.70;5.90;;;;;;;;;;5040887;28;20536;-63
2023/07/31 04:01:27;;;;;;;20.95;6.38;;;;;;;;;;5041900;28;20088;-62
2023/07/31 04:03:54;;;;;;;33.97;7.05;;;;;;;;;;5042823;28;20057;-60
2023/07/31 04:06:20;;;;;;;25.48;5.80;;;;;;;;;;5042641;28;20163;-59
2023/07/31 04:08:47;;;;;;;23.50;6.13;;;;;;;;;;5044123;28;20049;-61
2023/07/31 04:11:13;;;;;;;21.00;6.38;;;;;;;;;;5040544;28;20444;-60
2023/07/31 04:13:39;;;;;;;18.60;6.80;;;;;;;;;;5032867;28;20144;-64
2023/07/31 04:16:06;;;;;;;29.15;7.07;;;;;;;;;;5041807;28;20061;-59
2023/07/31 04:18:32;;;;;;;19.60;6.22;;;;;;;;;;5043144;28;20551;-59
2023/07/31 04:21:01;;;;;;;20.45;5.68;;;;;;;;;;5043029;28;20156;-65
2023/07/31 04:23:27;;;;;;;30.27;7.60;;;;;;;;;;5041262;28;20054;-61
2023/07/31 04:25:54;;;;;;;26.13;6.50;;;;;;;;;;5043190;28;20579;-60
2023/07/31 04:28:20;;;;;;;24.80;7.53;;;;;;;;;;5040901;28;20523;-63
2023/07/31 04:30:47;;;;;;;21.10;6.22;;;;;;;;;;5042773;28;20626;-63
2023/07/31 04:33:16;;;;;;;18.55;6.00;;;;;;;;;;5040679;28;20501;-59
2023/07/31 04:35:51;;;;;;;22.55;6.47;;;;;;;;;;5042051;28;20058;-63
2023/07/31 04:38:18;;;;;;;;;;;;;;;;;;5042728;28;20076;-63
2023/07/31 04:40:44;;;;;;;22.73;5.75;;;;;;;;;;5041232;28;42553;-63
2023/07/31 04:43:11;;;;;;;20.95;6.72;;;;;;;;;;5039850;28;20100;-63
2023/07/31 04:45:37;;;;;;;24.65;6.57;;;;;;;;;;5037220;28;20560;-64
2023/07/31 04:48:04;;;;;;;18.75;6.32;;;;;;;;;;5042872;28;20326;-60
2023/07/31 04:50:30;;;;;;;19.27;6.03;;;;;;;;;;5042561;28;20049;-64
2023/07/31 04:52:58;;;;;;;20.15;6.35;;;;;;;;;;5041932;28;20054;-60
2023/07/31 04:55:24;;;;;;;18.90;6.03;;;;;;;;;;5034973;28;20054;-63
2023/07/31 04:57:51;;;;;;;14.25;6.07;;;;;;;;;;5042029;28;20109;-62
2023/07/31 05:00:17;;;;;;;13.38;5.53;;;;;;;;;;5041204;28;20144;-61
2023/07/31 05:02:43;;;;;;;17.65;6.07;;;;;;;;;;5042662;28;20520;-62
2023/07/31 05:05:10;;;;;;;17.05;5.40;;;;;;;;;;5040060;28;20056;-61
2023/07/31 05:07:36;;;;;;;20.52;5.55;;;;;;;;;;5040513;28;20045;-61
2023/07/31 05:10:03;;;;;;;18.85;5.93;;;;;;;;;;5055903;28;20143;-61
2023/07/31 05:12:30;;;;;;;16.42;5.90;;;;;;;;;;5041088;28;20054;-63
2023/07/31 05:14:56;;;;;;;17.45;6.07;;;;;;;;;;5038656;28;20507;-61
2023/07/31 05:17:22;;;;;;;15.27;5.80;;;;;;;;;;5039972;28;20554;-63
2023/07/31 05:19:49;;;;;;;14.77;5.65;;;;;;;;;;5041516;28;20483;-64
2023/07/31 05:22:15;;;;;;;15.25;5.85;;;;;;;;;;5042804;28;20176;-56
2023/07/31 05:24:42;;;;;;;11.57;4.47;;;;;;;;;;5042745;28;20061;-64
2023/07/31 05:27:09;;;;;;;12.05;4.20;;;;;;;;;;5042693;28;20091;-64
2023/07/31 05:29:36;;;;;;;10.35;4.10;;;;;;;;;;5040565;28;20050;-61
2023/07/31 05:32:02;;;;;;;10.68;3.65;;;;;;;;;;5039858;28;20100;-60
2023/07/31 05:34:29;;;;;;;9.82;4.45;;;;;;;;;;5058245;28;20057;-64
2023/07/31 05:36:55;;;;;;;12.98;4.55;;;;;;;;;;5036344;28;20056;-62
2023/07/31 05:39:22;;;;;;;12.27;4.22;;;;;;;;;;5041987;28;20511;-63
2023/07/31 05:41:48;;;;;;;9.00;4.03;;;;;;;;;;5042219;28;20085;-64
2023/07/31 05:44:15;;;;;;;7.97;3.35;;;;;;;;;;5046684;28;20050;-63
2023/07/31 05:46:41;;;;;;;5.70;3.15;;;;;;;;;;5037559;28;20057;-59
2023/07/31 05:49:08;;;;;;;5.85;2.75;;;;;;;;;;5040546;28;20060;-64
2023/07/31 05:51:35;;;;;;;7.25;2.75;;;;;;;;;;5040615;28;20641;-62
2023/07/31 05:54:01;;;;;;;6.25;3.08;;;;;;;;;;5040874;28;20433;-63
2023/07/31 05:56:28;;;;;;;5.82;2.97;;;;;;;;;;5039372;28;20203;-63
2023/07/31 05:58:55;;;;;;;10.45;3.30;;;;;;;;;;5041636;28;20144;-62
2023/07/31 06:01:21;;;;;;;8.25;3.60;;;;;;;;;;5039697;28;20053;-61
2023/07/31 06:03:48;;;;;;;6.80;4.38;;;;;;;;;;5040372;28;20136;-63
2023/07/31 06:06:14;;;;;;;8.93;3.97;;;;;;;;;;5041199;28;20053;-64
2023/07/31 06:08:41;;;;;;;12.07;4.07;;;;;;;;;;5038076;28;20060;-62
2023/07/31 06:11:09;;;;;;;6.15;4.07;;;;;;;;;;5038826;28;20058;-65
2023/07/31 06:13:35;;;;;;;8.65;3.92;;;;;;;;;;5037665;28;20049;-62
2023/07/31 06:16:05;;;;;;;6.07;3.72;;;;;;;;;;5042066;28;20053;-62
2023/07/31 06:18:32;;;;;;;5.47;3.90;;;;;;;;;;5040253;28;20137;-63
2023/07/31 06:20:58;;;;;;;9.13;3.95;;;;;;;;;;5039444;28;20049;-59
2023/07/31 06:23:25;;;;;;;8.00;4.07;;;;;;;;;;5040559;28;20045;-59
2023/07/31 06:25:51;;;;;;;11.40;4.47;;;;;;;;;;5042331;28;20500;-63
2023/07/31 06:28:18;;;;;;;7.45;3.65;;;;;;;;;;5040924;28;20053;-62
2023/07/31 06:30:44;;;;;;;5.63;3.45;;;;;;;;;;5041920;28;20058;-59
2023/07/31 06:33:11;;;;;;;9.85;4.28;;;;;;;;;;5039593;28;20579;-62
2023/07/31 06:35:37;;;;;;;7.32;4.05;;;;;;;;;;5042219;28;20065;-60
2023/07/31 06:38:04;;;;;;;6.88;4.13;;;;;;;;;;5041736;28;20123;-60
2023/07/31 06:40:30;;;;;;;6.40;3.50;;;;;;;;;;5041416;28;20081;-63
2023/07/31 06:42:56;;;;;;;10.25;4.00;;;;;;;;;;5039124;28;20057;-60
2023/07/31 06:45:23;;;;;;;10.70;4.00;;;;;;;;;;5040755;28;20062;-59
2023/07/31 06:47:49;;;;;;;6.25;3.95;;;;;;;;;;5040469;28;20088;-63
2023/07/31 06:50:16;;;;;;;6.38;3.00;;;;;;;;;;5041318;28;20049;-63
2023/07/31 06:52:43;;;;;;;6.35;3.25;;;;;;;;;;5040688;28;20061;-67
2023/07/31 06:55:19;;;;;;;7.05;2.75;;;;;;;;;;5039073;28;20059;-58
2023/07/31 06:57:46;;;;;;;8.00;2.90;;;;;;;;;;5036295;28;20060;-60
2023/07/31 07:00:13;;;;;;;4.85;2.70;;;;;;;;;;5039836;28;20064;-62
2023/07/31 07:02:40;;;;;;;5.45;3.03;;;;;;;;;;5038434;28;20138;-65
2023/07/31 07:05:06;;;;;;;6.53;2.58;;;;;;;;;;5041086;28;20057;-58
2023/07/31 07:07:33;;;;;;;5.85;3.00;;;;;;;;;;5037839;28;20053;-59
2023/07/31 07:10:00;;;;;;;4.38;2.53;;;;;;;;;;5039326;28;20129;-62
2023/07/31 07:12:29;;;;;;;5.22;2.63;;;;;;;;;;5038452;28;20049;-64
2023/07/31 07:14:57;;;;;;;4.43;2.75;;;;;;;;;;5039674;28;20068;-62
2023/07/31 07:17:24;;;;;;;7.20;3.13;;;;;;;;;;5036705;28;20054;-64
2023/07/31 07:19:51;;;;;;;5.95;2.95;;;;;;;;;;5041052;28;20226;-62
2023/07/31 07:22:17;;;;;;;5.47;2.90;;;;;;;;;;5038991;28;20491;-57
2023/07/31 07:24:44;;;;;;;5.38;2.80;;;;;;;;;;5039245;28;20054;-60
2023/07/31 07:27:11;;;;;;;7.78;2.80;;;;;;;;;;5040357;28;20185;-62
2023/07/31 07:29:38;;;;;;;7.35;2.95;;;;;;;;;;5032575;28;20511;-62
2023/07/31 07:32:04;;;;;;;4.97;2.83;;;;;;;;;;5038195;28;20057;-64
2023/07/31 07:34:31;;;;;;;8.18;3.05;;;;;;;;;;5034263;28;20111;-63
2023/07/31 07:36:57;;;;;;;3.78;2.65;;;;;;;;;;5038365;28;20161;-62
2023/07/31 07:39:24;;;;;;;5.45;2.30;;;;;;;;;;5039085;28;20533;-60
2023/07/31 07:41:53;;;;;;;3.35;2.38;;;;;;;;;;5039281;28;20077;-59
2023/07/31 07:44:19;;;;;;;3.88;2.40;;;;;;;;;;5042330;28;20080;-63
2023/07/31 07:46:45;;;;;;;5.50;2.42;;;;;;;;;;5039971;28;20045;-61
2023/07/31 07:49:12;;;;;;;2.58;2.28;;;;;;;;;;5042918;28;20056;-58
2023/07/31 07:51:38;;;;;;;5.85;2.22;;;;;;;;;;5044141;28;20072;-62
2023/07/31 07:54:05;;;;;;;5.40;2.30;;;;;;;;;;5042639;28;20064;-59
2023/07/31 07:56:33;;;;;;;5.65;2.20;;;;;;;;;;5043620;28;20077;-63
2023/07/31 07:58:59;;;;;;;4.03;2.50;;;;;;;;;;5041738;28;20065;-62
2023/07/31 08:01:26;;;;;;;4.53;2.60;;;;;;;;;;5042295;28;20667;-60
2023/07/31 08:03:52;;;;;;;3.78;2.35;;;;;;;;;;5041998;28;20178;-63
2023/07/31 08:06:19;;;;;;;3.28;2.45;;;;;;;;;;5042289;28;20053;-58
2023/07/31 08:08:46;;;;;;;3.78;2.40;;;;;;;;;;5040902;28;20057;-62
2023/07/31 08:11:12;;;;;;;2.70;2.10;;;;;;;;;;5042383;28;20534;-60
2023/07/31 08:13:39;;;;;;;3.15;2.15;;;;;;;;;;5043849;28;20058;-63
2023/07/31 08:16:05;;;;;;;2.47;2.08;;;;;;;;;;5041380;28;20127;-61
2023/07/31 08:18:32;;;;;;;3.38;1.85;;;;;;;;;;5042357;28;20053;-59
2023/07/31 08:20:59;;;;;;;2.28;1.55;;;;;;;;;;5041300;28;20144;-58
2023/07/31 08:23:25;;;;;;;1.95;1.52;;;;;;;;;;5041739;28;20056;-61
2023/07/31 08:25:52;;;;;;;4.65;2.30;;;;;;;;;;5041727;28;20057;-62
2023/07/31 08:28:18;;;;;;;2.47;1.75;;;;;;;;;;5040800;28;20064;-58
2023/07/31 08:30:45;;;;;;;3.95;1.75;;;;;;;;;;5043021;28;20571;-63
2023/07/31 08:33:12;;;;;;;2.55;1.67;;;;;;;;;;5042449;28;20053;-61
2023/07/31 08:35:39;;;;;;;4.10;2.25;;;;;;;;;;5042373;28;20041;-63
2023/07/31 08:38:05;;;;;;;4.18;1.90;;;;;;;;;;5041609;28;20469;-64
2023/07/31 08:40:31;;;;;;;2.83;1.80;;;;;;;;;;5041345;28;20080;-62
2023/07/31 08:43:02;;;;;;;2.00;1.58;;;;;;;;;;5044008;28;20853;-63
2023/07/31 08:45:29;;;;;;;2.03;1.35;;;;;;;;;;5042851;28;20508;-64
2023/07/31 08:47:57;;;;;;;3.55;1.80;;;;;;;;;;5042220;28;20049;-65
2023/07/31 08:50:23;;;;;;;1.80;1.40;;;;;;;;;;5042280;28;20516;-60
2023/07/31 08:52:50;;;;;;;1.58;1.20;;;;;;;;;;5041277;28;20060;-63
2023/07/31 08:55:17;;;;;;;1.60;1.30;;;;;;;;;;5041080;28;20428;-63
2023/07/31 08:57:44;;;;;;;2.30;1.80;;;;;;;;;;5041663;28;20570;-61
2023/07/31 09:00:10;;;;;;;1.83;1.40;;;;;;;;;;5039611;28;20053;-64
2023/07/31 09:02:41;;;;;;;4.57;1.50;;;;;;;;;;5036830;28;20058;-61
2023/07/31 09:05:08;;;;;;;2.20;1.30;;;;;;;;;;5040711;28;20088;-64
2023/07/31 09:07:35;;;;;;;2.47;1.92;;;;;;;;;;5041169;28;20181;-63
2023/07/31 09:10:03;;;;;;;1.33;1.17;;;;;;;;;;5052686;28;20064;-62
2023/07/31 09:12:30;;;;;;;2.03;1.45;;;;;;;;;;5035587;28;20064;-63
2023/07/31 09:14:57;;;;;;;1.42;1.33;;;;;;;;;;5050147;28;20058;-64
2023/07/31 09:17:30;;;;;;;2.50;1.13;;;;;;;;;;5036428;28;20137;-61
2023/07/31 09:19:58;;;;;;;2.40;1.27;;;;;;;;;;5033224;28;20053;-66
2023/07/31 09:22:34;;;;;;;2.95;1.58;;;;;;;;;;5040206;28;20049;-63
2023/07/31 09:25:21;;;;;;;1.15;1.05;;;;;;;;;;5040117;28;20061;-65
2023/07/31 09:27:48;;;;;;;;;;;;;;;;;;5042045;28;20088;-63
2023/07/31 09:30:15;;;;;;;1.40;1.25;;;;;;;;;;5041031;28;45051;-62
2023/07/31 09:32:42;;;;;;;1.50;1.23;;;;;;;;;;5039276;28;20100;-58
2023/07/31 09:35:22;;;;;;;4.13;1.75;;;;;;;;;;5038585;28;20077;-64
2023/07/31 09:37:49;;;;;;;4.30;2.13;;;;;;;;;;5039972;28;20132;-62
2023/07/31 09:40:29;;;;;;;2.70;1.70;;;;;;;;;;5040705;28;20683;-62
2023/07/31 09:42:57;;;;;;;2.80;1.58;;;;;;;;;;5037808;28;20556;-60
2023/07/31 09:45:23;;;;;;;2.63;2.00;;;;;;;;;;5040646;28;20903;-63
2023/07/31 09:48:02;;;;;;;2.55;1.60;;;;;;;;;;5040635;28;20104;-62
2023/07/31 09:50:29;;;;;;;2.13;1.48;;;;;;;;;;5035455;28;20053;-63
2023/07/31 09:52:55;;;;;;;2.40;1.50;;;;;;;;;;5034027;28;20080;-57
2023/07/31 09:55:24;;;;;;;2.65;1.92;;;;;;;;;;5039687;28;20053;-63
2023/07/31 09:57:50;;;;;;;3.17;2.30;;;;;;;;;;5040692;28;20645;-64
2023/07/31 10:00:17;;;;;;;3.65;1.90;;;;;;;;;;5037267;28;20049;-58
2023/07/31 10:02:47;;;;;;;3.30;2.63;;;;;;;;;;5037513;28;20060;-64
2023/07/31 10:05:18;;;;;;;2.17;1.98;;;;;;;;;;5039422;28;20068;-61
2023/07/31 10:08:03;;;;;;;2.45;2.17;;;;;;;;;;5043960;28;20096;-61
2023/07/31 10:10:29;;;;;;;4.85;2.10;;;;;;;;;;5039388;28;20049;-63
2023/07/31 10:12:57;;;;;;;2.05;1.85;;;;;;;;;;5039926;28;20135;-61
2023/07/31 10:15:23;;;;;;;2.05;1.85;;;;;;;;;;5039176;28;20053;-60
2023/07/31 10:17:51;;;;;;;1.60;1.50;;;;;;;;;;5041746;28;20057;-61
2023/07/31 10:20:18;;;;;;;3.00;1.85;;;;;;;;;;5039265;28;20586;-63
2023/07/31 10:22:47;;;;;;;5.82;2.28;;;;;;;;;;5038725;28;20602;-63
2023/07/31 10:25:15;;;;;;;2.63;2.10;;;;;;;;;;5039915;28;20430;-62
2023/07/31 10:27:42;;;;;;;4.13;2.25;;;;;;;;;;5037432;28;20378;-62
2023/07/31 10:30:10;;;;;;;3.47;2.55;;;;;;;;;;5042000;28;20528;-61
2023/07/31 10:32:39;;;;;;;3.17;2.40;;;;;;;;;;5038478;28;20057;-62
2023/07/31 10:35:06;;;;;;;5.15;3.03;;;;;;;;;;5041201;28;20068;-64
2023/07/31 10:37:52;;;;;;;4.10;2.97;;;;;;;;;;5040112;28;20054;-58
2023/07/31 10:40:21;;;;;;;;;;;;;;;;;;5042136;28;20053;-61
2023/07/31 10:42:52;;;;;;;5.43;3.80;;;;;;;;;;5039393;28;45821;-62
2023/07/31 10:45:30;;;;;;;5.05;3.65;;;;;;;;;;5041502;28;20796;-61
2023/07/31 10:48:03;;;;;;;6.10;4.05;;;;;;;;;;5040159;28;20053;-63
2023/07/31 10:50:34;;;;;;;7.22;3.80;;;;;;;;;;5039652;28;20050;-60
2023/07/31 10:53:01;;;;;;;3.88;3.05;;;;;;;;;;5038154;28;20056;-61
2023/07/31 10:55:28;;;;;;;7.60;3.50;;;;;;;;;;5040659;28;20456;-62
2023/07/31 10:57:56;;;;;;;4.72;3.65;;;;;;;;;;5041998;28;20077;-63
2023/07/31 11:00:22;;;;;;;7.53;3.45;;;;;;;;;;5040595;28;20467;-64
2023/07/31 11:03:06;;;;;;;7.45;3.60;;;;;;;;;;5037869;28;20107;-60
2023/07/31 11:05:53;;;;;;;4.07;2.90;;;;;;;;;;5040681;28;20430;-64
2023/07/31 11:08:29;;;;;;;6.10;3.58;;;;;;;;;;5021495;28;20563;-62
2023/07/31 11:11:01;;;;;;;7.45;3.95;;;;;;;;;;5036859;28;20549;-63
2023/07/31 11:13:28;;;;;;;5.18;3.53;;;;;;;;;;5038718;28;20062;-62
2023/07/31 11:15:55;;;;;;;7.57;3.42;;;;;;;;;;5038982;28;20085;-59
2023/07/31 11:18:21;;;;;;;4.80;3.20;;;;;;;;;;5039672;28;20466;-59
2023/07/31 11:20:48;;;;;;;4.60;2.97;;;;;;;;;;5042319;28;20057;-62
2023/07/31 11:23:16;;;;;;;3.38;2.72;;;;;;;;;;5043351;28;20108;-62
2023/07/31 11:25:43;;;;;;;3.05;2.35;;;;;;;;;;5043448;28;20068;-63
2023/07/31 11:28:10;;;;;;;3.72;2.40;;;;;;;;;;5043882;28;20085;-60
2023/07/31 11:30:37;;;;;;;3.67;2.67;;;;;;;;;;5044033;28;20057;-63
2023/07/31 11:33:05;;;;;;;3.25;2.40;;;;;;;;;;5041111;28;20053;-61
2023/07/31 11:35:32;;;;;;;3.40;2.38;;;;;;;;;;5045331;28;20064;-63
2023/07/31 11:37:59;;;;;;;2.85;2.30;;;;;;;;;;5043179;28;20052;-63
2023/07/31 11:40:31;;;;;;;3.00;2.08;;;;;;;;;;5043279;28;20049;-62
2023/07/31 11:42:59;;;;;;;3.03;2.08;;;;;;;;;;5043884;28;20061;-61
2023/07/31 11:45:29;;;;;;;3.30;2.22;;;;;;;;;;5043114;28;20135;-63
2023/07/31 11:47:56;;;;;;;1.88;1.77;;;;;;;;;;5042324;28;21030;-65
2023/07/31 11:50:26;;;;;;;3.13;1.67;;;;;;;;;;5041053;28;20515;-63
2023/07/31 11:52:54;;;;;;;3.15;2.05;;;;;;;;;;5045005;28;20052;-61
2023/07/31 11:55:22;;;;;;;3.72;1.88;;;;;;;;;;5043679;28;20110;-62
2023/07/31 11:57:49;;;;;;;3.33;2.15;;;;;;;;;;5043300;28;20112;-63
2023/07/31 12:00:16;;;;;;;3.33;2.80;;;;;;;;;;5040750;28;20157;-63
2023/07/31 12:02:42;;;;;;;4.85;3.13;;;;;;;;;;5044402;28;20053;-64
2023/07/31 12:05:12;;;;;;;6.53;2.97;;;;;;;;;;5042461;28;20065;-63
2023/07/31 12:07:45;;;;;;;5.88;3.08;;;;;;;;;;5034480;28;20092;-62
2023/07/31 12:10:22;;;;;;;4.75;3.33;;;;;;;;;;5040420;28;20093;-61
2023/07/31 12:12:55;;;;;;;5.18;3.25;;;;;;;;;;5033003;28;20061;-60
2023/07/31 12:15:22;;;;;;;5.75;3.50;;;;;;;;;;5042665;28;20088;-61
2023/07/31 12:17:48;;;;;;;4.65;3.25;;;;;;;;;;5040196;28;20159;-64
2023/07/31 12:20:15;;;;;;;7.30;3.58;;;;;;;;;;5042738;28;20057;-63
2023/07/31 12:22:41;;;;;;;3.85;2.75;;;;;;;;;;5041122;28;20060;-64
2023/07/31 12:25:14;;;;;;;3.85;2.80;;;;;;;;;;5041713;28;20050;-58
2023/07/31 12:27:44;;;;;;;4.22;2.65;;;;;;;;;;5043765;28;20132;-64
2023/07/31 12:30:30;;;;;;;3.53;2.80;;;;;;;;;;5038214;28;20112;-60
2023/07/31 12:32:57;;;;;;;5.72;2.83;;;;;;;;;;5041543;28;20053;-62
2023/07/31 12:35:24;;;;;;;3.60;2.83;;;;;;;;;;5041482;28;20140;-63
2023/07/31 12:37:50;;;;;;;7.47;3.08;;;;;;;;;;5041510;28;20599;-61
2023/07/31 12:40:17;;;;;;;4.00;3.10;;;;;;;;;;5041276;28;20515;-59
2023/07/31 12:42:52;;;;;;;3.33;2.60;;;;;;;;;;5041319;28;20139;-64
2023/07/31 12:45:18;;;;;;;3.42;2.63;;;;;;;;;;5040958;28;20057;-63
2023/07/31 12:47:44;;;;;;;3.58;2.88;;;;;;;;;;5042649;28;20139;-60
2023/07/31 12:50:11;;;;;;;4.65;3.10;;;;;;;;;;5039771;28;20144;-65
2023/07/31 12:52:37;;;;;;;4.43;2.72;;;;;;;;;;5036625;28;20058;-65
2023/07/31 12:55:04;;;;;;;5.07;2.63;;;;;;;;;;5040505;28;20223;-57
2023/07/31 12:57:30;;;;;;;3.40;3.00;;;;;;;;;;5039967;28;20520;-64
2023/07/31 12:59:57;;;;;;;4.88;3.30;;;;;;;;;;5041621;28;20053;-65
2023/07/31 13:02:24;;;;;;;3.97;3.30;;;;;;;;;;5034113;28;20173;-64
2023/07/31 13:04:53;;;;;;;7.70;3.42;;;;;;;;;;5041855;28;20575;-62
2023/07/31 13:07:19;;;;;;;3.63;3.05;;;;;;;;;;5041169;28;20049;-58
2023/07/31 13:09:45;;;;;;;5.28;2.95;;;;;;;;;;5041862;28;20528;-56
2023/07/31 13:12:12;;;;;;;7.03;3.40;;;;;;;;;;5037643;28;20056;-63
2023/07/31 13:14:39;;;;;;;4.80;3.25;;;;;;;;;;5038435;28;21137;-64
2023/07/31 13:17:06;;;;;;;6.07;3.45;;;;;;;;;;5031878;28;20053;-63
2023/07/31 13:19:32;;;;;;;4.07;2.72;;;;;;;;;;5040250;28;20505;-59
2023/07/31 13:21:59;;;;;;;5.32;2.58;;;;;;;;;;5042735;28;20085;-64
2023/07/31 13:24:25;;;;;;;2.28;2.08;;;;;;;;;;5039486;28;20133;-63
2023/07/31 13:26:51;;;;;;;3.08;2.72;;;;;;;;;;5041459;28;20054;-60
2023/07/31 13:29:18;;;;;;;4.97;2.80;;;;;;;;;;5040678;28;20061;-62
2023/07/31 13:31:44;;;;;;;3.05;2.75;;;;;;;;;;5041174;28;20100;-61
2023/07/31 13:34:11;;;;;;;3.33;2.90;;;;;;;;;;5041416;28;20085;-64
2023/07/31 13:36:37;;;;;;;3.70;2.63;;;;;;;;;;5040567;28;20598;-61
2023/07/31 13:39:04;;;;;;;2.97;2.63;;;;;;;;;;5040730;28;20064;-62
2023/07/31 13:41:31;;;;;;;3.72;2.80;;;;;;;;;;5040898;28;20060;-60
2023/07/31 13:43:58;;;;;;;2.47;2.28;;;;;;;;;;5039608;28;20515;-64
2023/07/31 13:46:25;;;;;;;3.95;2.25;;;;;;;;;;5041015;28;20454;-60
2023/07/31 13:48:54;;;;;;;2.53;2.25;;;;;;;;;;5039591;28;20054;-61
2023/07/31 13:51:21;;;;;;;2.17;1.90;;;;;;;;;;5037460;28;20081;-63
2023/07/31 13:53:47;;;;;;;2.67;1.83;;;;;;;;;;5040770;28;20053;-60
2023/07/31 13:56:14;;;;;;;3.20;1.60;;;;;;;;;;5038094;28;20140;-62
2023/07/31 13:58:40;;;;;;;1.40;1.30;;;;;;;;;;5041093;28;20060;-63
2023/07/31 14:01:07;;;;;;;1.52;1.00;;;;;;;;;;5040904;28;20662;-63
2023/07/31 14:03:33;;;;;;;1.20;1.10;;;;;;;;;;5039772;28;20057;-64
2023/07/31 14:06:00;;;;;;;1.25;1.05;;;;;;;;;;5039438;28;20057;-63
2023/07/31 14:08:27;;;;;;;2.58;1.23;;;;;;;;;;5039896;28;20995;-63
2023/07/31 14:10:53;;;;;;;2.17;1.52;;;;;;;;;;5040353;28;20050;-63
2023/07/31 14:13:19;;;;;;;1.88;1.23;;;;;;;;;;5039927;28;20057;-58
2023/07/31 14:15:46;;;;;;;1.40;1.27;;;;;;;;;;5040152;28;20060;-62
2023/07/31 14:18:12;;;;;;;1.08;1.00;;;;;;;;;;5038943;28;20064;-63
2023/07/31 14:20:39;;;;;;;1.58;1.48;;;;;;;;;;5040458;28;20085;-61
2023/07/31 14:23:05;;;;;;;1.50;1.27;;;;;;;;;;5039330;28;20057;-62
2023/07/31 14:25:32;;;;;;;2.63;1.23;;;;;;;;;;5041235;28;20490;-63
2023/07/31 14:27:59;;;;;;;1.90;1.63;;;;;;;;;;5040357;28;20067;-64
2023/07/31 14:30:25;;;;;;;4.10;1.63;;;;;;;;;;5038194;28;20572;-61
2023/07/31 14:32:51;;;;;;;1.85;1.73;;;;;;;;;;5039243;28;20720;-65
2023/07/31 14:35:18;;;;;;;1.90;1.70;;;;;;;;;;5040953;28;20104;-60
2023/07/31 14:37:45;;;;;;;4.00;2.15;;;;;;;;;;5039445;28;20050;-61
2023/07/31 14:40:12;;;;;;;5.55;3.40;;;;;;;;;;5037536;28;20053;-66
2023/07/31 14:42:39;;;;;;;4.72;3.17;;;;;;;;;;5035972;28;20056;-64